Time;durP1;ratioP1;P1;durP2;ratioP2;P2;SDS_P1;SDS_P2;PMS_P1;PMS_P2;Temp;Humidity;BMP_temperature;BMP_pressure;BME280_temperature;BME280_humidity;BME280_pressure;Samples;Min_cycle;Max_cycle;Signal;HPM_P1;HPM_P2
2021/12/14 00:03:11;;;;;;;3.28;1.50;;;;;;;15.31;61.64;102045.81;21159152;28;20035;-68
2021/12/14 00:13:29;;;;;;;1.73;1.60;;;;;;;15.34;61.69;102072.47;21158122;28;20044;-68
2021/12/14 00:33:59;;;;;;;2.25;1.45;;;;;;;15.75;61.35;102173.84;21156752;28;20051;-68
2021/12/14 00:44:01;;;;;;;2.38;1.92;;;;;;;15.16;61.17;102090.50;21138893;28;20574;-68
2021/12/14 00:54:08;;;;;;;3.47;1.88;;;;;;;15.63;61.48;102179.94;21137893;28;20116;-68
2021/12/14 01:04:15;;;;;;;1.77;1.50;;;;;;;14.92;61.21;102056.97;21137915;28;20105;-68
2021/12/14 01:14:46;;;;;;;1.50;1.40;;;;;;;15.63;61.39;102174.56;21137176;28;20481;-68
2021/12/14 01:25:02;;;;;;;2.78;1.80;;;;;;;15.41;61.05;102138.22;21156191;28;20056;-68
2021/12/14 01:35:10;;;;;;;;;;;;;;;15.56;61.30;102135.63;21153154;28;20051;-68
2021/12/14 01:45:21;;;;;;;2.17;1.92;;;;;;;15.35;61.49;102106.41;21170082;28;19919;-68
2021/12/14 01:55:28;;;;;;;2.53;2.17;;;;;;;14.45;61.62;101972.06;21136011;28;20531;-68
2021/12/14 02:05:33;;;;;;;2.88;2.13;;;;;;;15.12;61.25;102119.34;21150245;28;20078;-68
2021/12/14 02:15:42;;;;;;;2.30;2.10;;;;;;;14.24;61.20;101948.25;21149284;28;20056;-68
2021/12/14 02:25:50;;;;;;;3.20;2.65;;;;;;;15.31;61.62;102131.69;21148619;28;20120;-68
2021/12/14 02:35:53;;;;;;;2.35;1.80;;;;;;;15.30;61.36;102121.91;21131157;28;20477;-68
2021/12/14 02:46:12;;;;;;;2.17;1.95;;;;;;;14.90;61.66;102066.91;21130427;28;20046;-68
2021/12/14 02:56:18;;;;;;;2.10;1.77;;;;;;;15.14;61.72;102128.16;21146599;28;20130;-68
2021/12/14 03:06:24;;;;;;;;;;;;;;;15.29;61.35;102133.59;21145475;28;20051;-68
2021/12/14 03:16:28;;;;;;;2.73;2.30;;;;;;;15.26;61.43;102123.91;21144899;28;19923;-68
2021/12/14 03:26:34;;;;;;;2.75;2.47;;;;;;;15.01;60.81;102084.22;21143511;28;20063;-68
2021/12/14 03:36:40;;;;;;;3.67;2.93;;;;;;;15.29;60.93;102130.91;21161305;28;20051;-68
2021/12/14 03:46:49;;;;;;;3.28;2.60;;;;;;;15.22;60.97;102115.16;21142120;28;20047;-68
2021/12/14 03:56:52;;;;;;;3.20;2.40;;;;;;;15.27;60.76;102106.00;21159802;28;20501;-68
2021/12/14 04:06:58;;;;;;;;;;;;;;;15.33;60.73;102127.09;21140824;28;20060;-68
2021/12/14 04:17:00;;;;;;;2.35;2.15;;;;;;;15.32;60.85;102111.94;21140327;28;19927;-68
2021/12/14 04:27:08;;;;;;;3.92;3.38;;;;;;;15.30;60.79;102104.00;21139228;28;20067;-69
2021/12/14 04:37:11;;;;;;;3.88;2.80;;;;;;;14.69;60.65;101999.28;21138889;28;20491;-69
2021/12/14 04:57:52;;;;;;;3.75;2.53;;;;;;;15.79;60.44;102093.97;21123792;28;20047;-69
2021/12/14 05:18:16;;;;;;;4.03;3.20;;;;;;;16.03;59.76;102102.38;21154591;28;20686;-67
2021/12/14 05:28:20;;;;;;;4.65;3.38;;;;;;;16.21;59.72;102104.88;21136885;28;20044;-72
2021/12/14 05:38:42;;;;;;;5.88;3.78;;;;;;;16.33;59.44;102074.53;21152729;28;20039;-67
2021/12/14 05:49:06;;;;;;;5.65;5.03;;;;;;;16.80;58.92;102128.09;21151639;28;20085;-67
2021/12/14 05:59:08;;;;;;;4.53;3.58;;;;;;;16.92;58.62;102135.34;21152322;28;20052;-69
2021/12/14 06:09:24;;;;;;;5.88;4.57;;;;;;;16.98;58.79;102141.31;21148570;28;20048;-69
2021/12/14 06:19:38;;;;;;;4.57;4.03;;;;;;;16.36;58.98;102023.31;21128515;28;20075;-68
2021/12/14 06:29:57;;;;;;;6.43;4.00;;;;;;;17.15;58.95;102153.66;21143572;28;20501;-69
2021/12/14 06:40:18;;;;;;;4.95;4.10;;;;;;;16.66;59.29;102057.22;21126655;28;20043;-69
2021/12/14 06:50:28;;;;;;;4.97;3.88;;;;;;;17.23;59.13;102148.63;21142689;28;20051;-67
2021/12/14 07:00:30;;;;;;;6.70;4.60;;;;;;;16.80;59.12;102083.22;21141734;28;20093;-68
2021/12/14 07:10:39;;;;;;;6.47;5.78;;;;;;;17.23;59.04;102157.59;21097638;28;1273586;-67
2021/12/14 07:20:44;;;;;;;5.68;5.10;;;;;;;17.13;59.16;102137.63;21162726;28;20066;-68
2021/12/14 07:30:54;;;;;;;5.97;5.05;;;;;;;17.24;59.02;102153.06;21160846;28;20431;-68
2021/12/14 07:41:16;;;;;;;5.05;4.55;;;;;;;17.39;58.54;102188.88;21162233;28;20062;-68
2021/12/14 07:51:20;;;;;;;8.57;7.07;;;;;;;17.36;58.58;102183.69;21160927;28;20047;-71
2021/12/14 08:01:22;;;;;;;8.63;7.18;;;;;;;17.43;58.48;102205.66;21159110;28;20055;-68
2021/12/14 08:21:43;;;;;;;7.07;6.03;;;;;;;17.40;58.58;102222.91;21141810;28;20101;-67
2021/12/14 08:31:52;;;;;;;7.20;6.50;;;;;;;17.43;58.71;102233.47;21157554;28;20096;-67
2021/12/14 08:42:16;;;;;;;5.70;5.10;;;;;;;16.82;58.79;102123.47;21139927;28;20051;-68
2021/12/14 08:52:23;;;;;;;7.72;6.10;;;;;;;17.43;59.02;102221.81;21156420;28;20464;-74
2021/12/14 09:02:26;;;;;;;7.80;6.07;;;;;;;17.32;59.27;102206.41;21137895;28;20043;-72
2021/12/14 09:12:32;;;;;;;6.97;5.18;;;;;;;17.60;58.82;102226.09;21137657;28;20405;-73
2021/12/14 09:22:41;;;;;;;6.30;4.80;;;;;;;17.08;58.70;102137.06;21155163;28;20447;-72
2021/12/14 09:32:43;;;;;;;6.63;5.57;;;;;;;17.28;58.85;102161.81;21136624;28;20077;-71
2021/12/14 09:42:45;;;;;;;6.45;4.68;;;;;;;17.59;59.10;102232.44;21154487;28;20104;-72
2021/12/14 09:52:48;;;;;;;8.52;5.75;;;;;;;17.03;58.95;102134.69;21147098;28;20497;-72
2021/12/14 10:02:53;;;;;;;6.97;6.10;;;;;;;17.52;59.07;102218.53;21169001;28;20058;-72
2021/12/14 10:12:56;;;;;;;10.13;6.55;;;;;;;17.04;59.08;102138.22;21168036;28;20059;-71
2021/12/14 10:22:59;;;;;;;8.10;6.40;;;;;;;16.94;59.55;102140.59;21149132;28;20048;-72
2021/12/14 10:33:02;;;;;;;8.75;5.05;;;;;;;17.56;59.40;102240.72;21148281;28;20043;-74
2021/12/14 10:43:13;;;;;;;7.32;5.63;;;;;;;17.06;59.13;102141.69;21165858;28;20093;-72
2021/12/14 10:53:16;;;;;;;7.13;5.55;;;;;;;17.39;59.18;102205.03;21148488;28;20047;-72
2021/12/14 11:03:31;;;;;;;9.05;6.25;;;;;;;16.94;59.14;102137.91;21144998;28;20048;-73
2021/12/14 11:13:39;;;;;;;8.20;6.85;;;;;;;17.48;59.26;102215.19;21163476;28;20051;-73
2021/12/14 11:23:43;;;;;;;10.40;6.25;;;;;;;17.55;59.35;102218.34;21162750;28;20047;-71
2021/12/14 11:34:07;;;;;;;;;;;;;;;17.58;59.38;102215.44;21162020;28;20063;-72
2021/12/14 11:44:09;;;;;;;5.70;3.92;;;;;;;17.62;59.29;102213.38;21142696;28;19927;-71
2021/12/14 11:54:11;;;;;;;4.38;3.65;;;;;;;15.57;59.05;101903.84;21141790;28;20051;-72
2021/12/14 12:04:19;;;;;;;6.18;4.85;;;;;;;17.08;59.42;102099.38;21141052;28;20043;-72
2021/12/14 12:14:23;;;;;;;6.38;4.95;;;;;;;17.09;59.35;102106.50;21158072;28;20055;-72
2021/12/14 12:24:39;;;;;;;4.20;3.80;;;;;;;17.40;59.34;102147.53;21157674;28;20117;-71
2021/12/14 12:34:40;;;;;;;;;;;;;;;17.68;59.24;102194.16;21157666;28;20054;-72
2021/12/14 12:44:43;;;;;;;4.80;4.00;;;;;;;16.90;59.19;102080.78;21156704;28;19919;-71
2021/12/14 12:55:11;;;;;;;6.05;3.75;;;;;;;16.99;59.14;102084.72;21138459;28;20049;-71
2021/12/14 13:05:24;;;;;;;5.32;3.90;;;;;;;17.65;59.27;102221.25;21155963;28;20101;-71
2021/12/14 13:15:30;;;;;;;3.30;3.00;;;;;;;17.65;59.20;102215.88;21137090;28;20064;-71
2021/12/14 13:25:38;;;;;;;4.43;3.63;;;;;;;17.58;59.08;102203.78;21164254;28;20051;-71
2021/12/14 13:35:39;;;;;;;3.20;2.90;;;;;;;16.60;58.86;102025.34;21171345;28;20070;-71
2021/12/14 13:45:44;;;;;;;5.43;4.38;;;;;;;16.62;59.18;102033.34;21170691;28;20055;-70
2021/12/14 13:55:50;;;;;;;4.97;3.78;;;;;;;17.01;59.52;102119.59;21169810;28;20051;-72
2021/12/14 14:05:52;;;;;;;4.97;4.22;;;;;;;17.36;59.47;102183.69;21168762;28;20047;-72
2021/12/14 14:15:56;;;;;;;4.07;3.30;;;;;;;17.40;60.19;102198.66;21168019;28;20439;-72
2021/12/14 14:26:01;;;;;;;3.88;3.50;;;;;;;16.88;59.81;102131.13;21149408;28;20100;-71
2021/12/14 14:36:12;;;;;;;4.40;3.28;;;;;;;16.41;59.75;102067.84;21165977;28;20039;-72
2021/12/14 14:46:38;;;;;;;4.10;3.65;;;;;;;16.70;59.63;102116.16;21147632;28;20450;-71
2021/12/14 14:56:40;;;;;;;4.40;3.08;;;;;;;17.39;59.79;102227.41;21146312;28;20040;-72
2021/12/14 15:06:43;;;;;;;3.90;3.47;;;;;;;17.45;59.54;102246.81;21163640;28;20079;-72
2021/12/14 15:17:02;;;;;;;4.40;3.42;;;;;;;17.45;59.66;102247.69;21145404;28;20051;-72
2021/12/14 15:27:07;;;;;;;2.88;2.58;;;;;;;17.45;59.25;102226.16;21162727;28;20549;-72
2021/12/14 15:37:43;;;;;;;3.30;2.95;;;;;;;17.33;59.66;102197.34;21161516;28;20065;-75
2021/12/14 15:48:09;;;;;;;3.35;3.05;;;;;;;17.47;59.51;102237.69;21125951;28;20046;-72
2021/12/14 15:58:14;;;;;;;3.72;3.20;;;;;;;17.42;59.53;102220.09;21160292;28;20059;-72
2021/12/14 16:08:21;;;;;;;4.50;3.57;;;;;;;17.13;59.36;102155.59;21158712;28;20104;-73
2021/12/14 16:18:22;;;;;;;2.97;2.70;;;;;;;17.43;59.34;102225.38;21123601;28;20051;-72
2021/12/14 16:28:28;;;;;;;4.20;3.78;;;;;;;16.94;59.68;102160.31;21157567;28;20039;-72
2021/12/14 16:38:38;;;;;;;4.95;4.10;;;;;;;17.25;59.20;102208.63;21157385;28;20035;-72
2021/12/14 16:48:41;;;;;;;4.53;3.60;;;;;;;17.39;59.41;102238.16;21156716;28;20044;-72
2021/12/14 16:58:43;;;;;;;3.72;3.25;;;;;;;17.24;59.51;102229.28;21163350;28;20055;-72
2021/12/14 17:08:47;;;;;;;4.47;3.53;;;;;;;16.75;59.60;102174.09;21173218;28;20055;-72
2021/12/14 17:18:53;;;;;;;4.25;3.60;;;;;;;16.95;59.76;102229.31;21154751;28;20051;-72
2021/12/14 17:28:59;;;;;;;3.63;3.30;;;;;;;16.52;60.14;102168.31;21171743;28;20048;-72
2021/12/14 17:39:06;;;;;;;;;;;;;;;17.03;60.32;102268.31;21171537;28;20113;-72
2021/12/14 17:49:14;;;;;;;4.32;3.88;;;;;;;16.90;60.36;102274.47;21171204;28;19920;-72
2021/12/14 17:59:16;;;;;;;3.58;3.28;;;;;;;16.70;60.65;102250.63;21169559;28;20447;-73
2021/12/14 18:09:18;;;;;;;3.83;3.42;;;;;;;16.77;60.89;102273.47;21149804;28;20078;-72
2021/12/14 18:19:42;;;;;;;5.53;4.30;;;;;;;16.62;61.01;102286.91;21169145;28;20043;-72
2021/12/14 18:29:52;;;;;;;4.80;4.35;;;;;;;16.57;61.10;102283.66;21167307;28;20039;-72
2021/12/14 18:39:54;;;;;;;4.70;4.00;;;;;;;15.84;61.34;102161.69;21166314;28;20075;-72
2021/12/14 18:49:56;;;;;;;4.65;4.15;;;;;;;16.05;61.71;102213.28;21147293;28;20040;-72
2021/12/14 19:00:09;;;;;;;4.88;4.10;;;;;;;15.81;61.77;102176.16;21129910;28;20040;-71
2021/12/14 19:10:19;;;;;;;4.10;3.65;;;;;;;15.76;61.81;102180.09;21163762;28;20164;-71
2021/12/14 19:20:41;;;;;;;4.80;4.03;;;;;;;16.29;62.08;102290.69;21162214;28;20055;-72
2021/12/14 19:30:51;;;;;;;5.20;4.15;;;;;;;15.65;62.13;102186.09;21161791;28;20382;-72
2021/12/14 19:41:07;;;;;;;5.47;4.60;;;;;;;15.64;62.11;102208.50;21161439;28;20044;-72
2021/12/14 19:51:18;;;;;;;4.35;3.95;;;;;;;15.58;62.20;102208.88;21160526;28;20073;-72
2021/12/14 20:01:23;;;;;;;4.15;3.75;;;;;;;15.89;62.69;102287.66;21141918;28;20112;-71
2021/12/14 20:11:32;;;;;;;5.55;4.60;;;;;;;15.61;62.76;102267.75;21141070;28;20055;-71
2021/12/14 20:21:38;;;;;;;5.93;4.70;;;;;;;15.71;62.68;102279.69;21158297;28;20040;-71
2021/12/14 20:31:47;;;;;;;4.80;4.35;;;;;;;15.93;62.77;102330.38;21157300;28;20071;-74
2021/12/14 20:42:04;;;;;;;6.60;5.05;;;;;;;15.41;63.05;102245.56;21158513;28;20134;-71
2021/12/14 20:52:09;;;;;;;6.70;5.05;;;;;;;15.91;63.16;102326.91;21156728;28;20048;-71
2021/12/14 21:02:27;;;;;;;6.70;5.37;;;;;;;15.88;63.41;102334.25;21156318;28;20101;-71
2021/12/14 21:12:31;;;;;;;6.28;4.93;;;;;;;15.76;63.25;102331.31;21155863;28;20117;-71
2021/12/14 21:22:39;;;;;;;6.57;5.10;;;;;;;15.71;63.51;102330.69;21137217;28;20053;-71
2021/12/14 21:32:46;;;;;;;6.50;5.13;;;;;;;15.30;63.39;102265.00;21155460;28;20100;-72
2021/12/14 21:42:51;;;;;;;7.80;5.65;;;;;;;15.71;63.66;102343.28;21156511;28;20050;-75
2021/12/14 21:52:56;;;;;;;5.93;4.97;;;;;;;15.55;63.96;102325.31;21169950;28;20047;-71
2021/12/14 22:03:02;;;;;;;7.30;5.80;;;;;;;15.50;63.63;102330.09;21151199;28;20673;-71
2021/12/14 22:13:07;;;;;;;6.15;5.00;;;;;;;15.42;64.07;102333.19;21150558;28;20309;-71
2021/12/14 22:23:09;;;;;;;5.70;5.07;;;;;;;14.42;63.72;102181.22;21149957;28;20442;-71
2021/12/14 22:33:13;;;;;;;8.10;5.90;;;;;;;14.95;64.24;102270.47;21148766;28;20043;-71
2021/12/14 22:53:18;;;;;;;6.03;4.88;;;;;;;15.44;64.31;102354.59;21165234;28;20043;-71
2021/12/14 23:03:20;;;;;;;6.32;5.38;;;;;;;14.86;64.17;102261.09;21164495;28;20073;-71
2021/12/14 23:13:31;;;;;;;6.20;5.60;;;;;;;15.37;64.06;102340.63;21164048;28;20060;-71
2021/12/14 23:23:33;;;;;;;6.80;5.57;;;;;;;14.70;64.15;102247.66;21162986;28;20043;-71
2021/12/14 23:33:36;;;;;;;5.80;4.78;;;;;;;15.29;64.35;102370.59;21161904;28;20065;-70
2021/12/14 23:43:38;;;;;;;6.22;4.63;;;;;;;15.12;64.51;102327.69;21142898;28;20047;-71
2021/12/14 23:53:42;;;;;;;8.52;5.65;;;;;;;14.85;64.61;102288.88;21142151;28;20469;-71
